createdAt,value
2022-12-08T00:00:02.529Z,2.10
2022-12-08T00:02:29.097Z,2.04
2022-12-08T00:05:14.179Z,2.12
2022-12-08T00:07:59.093Z,2.09
2022-12-08T00:10:48.416Z,2.07
2022-12-08T00:13:12.126Z,1.99
2022-12-08T00:15:38.537Z,1.97
2022-12-08T00:18:05.393Z,1.93
2022-12-08T00:20:31.796Z,1.89
2022-12-08T00:22:58.207Z,1.86
2022-12-08T00:25:24.627Z,1.83
2022-12-08T00:27:50.995Z,1.80
2022-12-08T00:30:17.382Z,1.89
2022-12-08T00:32:43.776Z,1.90
2022-12-08T00:35:10.221Z,1.88
2022-12-08T00:37:36.611Z,1.85
2022-12-08T00:40:03.620Z,1.86
2022-12-08T00:42:30.225Z,1.86
2022-12-08T00:44:56.606Z,1.86
2022-12-08T00:47:24.952Z,1.88
2022-12-08T00:49:51.975Z,1.89
2022-12-08T00:52:18.442Z,1.89
2022-12-08T00:54:44.973Z,1.92
2022-12-08T00:57:11.614Z,1.91
2022-12-08T00:59:38.002Z,1.96
2022-12-08T01:02:04.407Z,1.92
2022-12-08T01:04:30.791Z,1.89
2022-12-08T01:06:57.224Z,1.93
2022-12-08T01:09:23.772Z,1.96
2022-12-08T01:11:52.312Z,1.92
2022-12-08T01:14:18.762Z,1.89
2022-12-08T01:16:45.198Z,1.87
2022-12-08T01:19:14.038Z,1.83
2022-12-08T01:21:41.451Z,1.78
2022-12-08T01:24:14.093Z,1.77
2022-12-08T01:26:40.685Z,1.78
2022-12-08T01:29:07.071Z,1.76
2022-12-08T01:31:37.568Z,1.72
2022-12-08T01:34:04.269Z,1.71
2022-12-08T01:36:32.744Z,1.71
2022-12-08T01:39:01.366Z,1.70
2022-12-08T01:41:30.867Z,1.68
2022-12-08T01:44:02.096Z,1.68
2022-12-08T01:46:31.294Z,1.66
2022-12-08T01:49:10.876Z,1.58
2022-12-08T01:51:44.116Z,1.59
2022-12-08T01:54:12.601Z,1.57
2022-12-08T01:56:52.662Z,1.58
2022-12-08T01:59:19.392Z,1.54
2022-12-08T02:01:45.894Z,1.55
2022-12-08T02:04:12.395Z,1.57
2022-12-08T02:06:43.063Z,1.56
2022-12-08T02:09:09.765Z,1.56
2022-12-08T02:11:36.314Z,1.56
2022-12-08T02:14:06.372Z,1.52
2022-12-08T02:16:54.129Z,1.57
2022-12-08T02:20:10.126Z,1.54
2022-12-08T02:22:48.530Z,1.49
2022-12-08T02:25:19.453Z,1.47
2022-12-08T02:28:10.650Z,1.43
2022-12-08T02:31:18.736Z,1.36
2022-12-08T02:34:09.366Z,1.35
2022-12-08T02:36:56.176Z,1.33
2022-12-08T02:39:42.105Z,1.30
2022-12-08T02:42:30.735Z,1.27
2022-12-08T02:45:11.723Z,1.28
2022-12-08T02:47:38.465Z,1.29
2022-12-08T02:50:05.659Z,1.26
2022-12-08T02:52:32.214Z,1.22
2022-12-08T02:55:09.303Z,1.22
2022-12-08T02:58:10.891Z,1.28
2022-12-08T03:00:43.773Z,1.19
2022-12-08T03:03:21.527Z,1.19
2022-12-08T03:06:14.311Z,1.15
2022-12-08T03:09:39.622Z,1.12
2022-12-08T03:12:18.367Z,1.14
2022-12-08T03:14:48.415Z,1.15
2022-12-08T03:17:19.037Z,1.17
2022-12-08T03:19:47.755Z,1.12
2022-12-08T03:22:19.717Z,1.09
2022-12-08T03:24:46.957Z,1.08
2022-12-08T03:27:21.402Z,1.05
2022-12-08T03:29:51.065Z,1.08
2022-12-08T03:32:23.823Z,1.09
2022-12-08T03:34:51.650Z,1.10
2022-12-08T03:37:18.235Z,1.11
2022-12-08T03:39:44.692Z,1.08
2022-12-08T03:42:11.134Z,1.07
2022-12-08T03:44:37.510Z,1.08
2022-12-08T03:47:03.957Z,1.08
2022-12-08T03:49:30.348Z,1.11
2022-12-08T03:51:56.833Z,1.17
2022-12-08T03:54:24.242Z,1.11
2022-12-08T03:56:50.736Z,1.14
2022-12-08T03:59:17.204Z,1.12
2022-12-08T04:01:43.659Z,1.10
2022-12-08T04:04:10.112Z,1.20
2022-12-08T04:06:36.516Z,1.13
2022-12-08T04:09:03.611Z,1.10
2022-12-08T04:11:30.075Z,1.12
2022-12-08T04:13:56.594Z,1.12
2022-12-08T04:16:25.994Z,1.13
2022-12-08T04:18:52.461Z,1.15
2022-12-08T04:21:18.829Z,1.12
2022-12-08T04:23:45.837Z,1.17
2022-12-08T04:26:13.524Z,1.14
2022-12-08T04:28:40.001Z,1.12
2022-12-08T04:31:06.717Z,1.07
2022-12-08T04:33:36.496Z,1.07
2022-12-08T04:36:04.957Z,1.07
2022-12-08T04:38:31.835Z,1.08
2022-12-08T04:40:58.308Z,1.18
2022-12-08T04:43:24.764Z,1.13
2022-12-08T04:45:51.241Z,1.11
2022-12-08T04:48:20.115Z,1.11
2022-12-08T04:50:46.815Z,1.10
2022-12-08T04:53:14.790Z,1.09
2022-12-08T04:55:44.090Z,1.09
2022-12-08T04:58:15.468Z,1.13
2022-12-08T05:00:42.054Z,1.08
2022-12-08T05:03:09.402Z,1.00
2022-12-08T05:05:36.036Z,1.02
2022-12-08T05:08:02.600Z,1.04
2022-12-08T05:10:29.119Z,1.08
2022-12-08T05:12:55.567Z,1.05
2022-12-08T05:15:21.947Z,1.08
2022-12-08T05:17:48.413Z,1.05
2022-12-08T05:20:14.787Z,1.06
2022-12-08T05:22:41.267Z,1.07
2022-12-08T05:25:08.002Z,1.05
2022-12-08T05:27:34.795Z,1.05
2022-12-08T05:30:01.521Z,0.99
2022-12-08T05:32:28.182Z,0.98
2022-12-08T05:34:54.609Z,1.01
2022-12-08T05:37:21.017Z,1.04
2022-12-08T05:39:47.563Z,1.00
2022-12-08T05:42:13.953Z,0.98
2022-12-08T05:44:40.374Z,0.97
2022-12-08T05:47:06.776Z,0.96
2022-12-08T05:49:33.273Z,0.98
2022-12-08T05:51:59.668Z,0.95
2022-12-08T05:54:26.106Z,0.93
2022-12-08T05:56:52.511Z,0.95
2022-12-08T05:59:19.265Z,0.93
2022-12-08T06:01:45.806Z,0.97
2022-12-08T06:04:12.604Z,0.95
2022-12-08T06:06:39.021Z,0.91
2022-12-08T06:09:06.475Z,0.87
2022-12-08T06:11:33.758Z,0.89
2022-12-08T06:14:00.238Z,0.90
2022-12-08T06:16:28.093Z,0.88
2022-12-08T06:18:55.137Z,0.90
2022-12-08T06:21:21.526Z,0.89
2022-12-08T06:23:50.251Z,0.86
2022-12-08T06:26:17.941Z,0.83
2022-12-08T06:28:44.549Z,0.81
2022-12-08T06:31:14.956Z,0.82
2022-12-08T06:33:41.494Z,0.83
2022-12-08T06:36:08.223Z,0.86
2022-12-08T06:38:38.118Z,0.84
2022-12-08T06:41:07.414Z,0.89
2022-12-08T06:43:34.063Z,0.90
2022-12-08T06:46:01.590Z,0.87
2022-12-08T06:48:28.046Z,0.88
2022-12-08T06:50:54.652Z,0.90
2022-12-08T06:53:21.032Z,0.85
2022-12-08T06:55:59.164Z,0.85
2022-12-08T06:58:25.909Z,0.84
2022-12-08T07:00:52.504Z,0.93
2022-12-08T07:03:19.262Z,0.86
2022-12-08T07:05:45.684Z,0.89
2022-12-08T07:08:12.295Z,0.85
2022-12-08T07:10:38.850Z,0.88
2022-12-08T07:13:05.258Z,0.94
2022-12-08T07:15:31.679Z,0.93
2022-12-08T07:18:00.041Z,0.91
2022-12-08T07:20:27.035Z,0.90
2022-12-08T07:22:53.802Z,0.93
2022-12-08T07:25:20.530Z,0.89
2022-12-08T07:27:47.585Z,0.85
2022-12-08T07:30:14.994Z,0.89
2022-12-08T07:32:41.414Z,0.95
2022-12-08T07:35:08.521Z,0.95
2022-12-08T07:37:36.224Z,0.96
2022-12-08T07:40:04.226Z,0.94
2022-12-08T07:42:30.957Z,0.89
2022-12-08T07:44:57.345Z,0.90
2022-12-08T07:47:23.759Z,0.94
2022-12-08T07:49:50.211Z,0.99
2022-12-08T07:52:16.686Z,1.00
2022-12-08T07:54:43.190Z,1.05
2022-12-08T07:57:09.863Z,1.07
2022-12-08T07:59:36.351Z,1.12
2022-12-08T08:02:22.789Z,1.13
2022-12-08T08:04:52.870Z,1.18
2022-12-08T08:07:19.367Z,1.29
2022-12-08T08:09:45.924Z,1.27
2022-12-08T08:15:00.802Z,1.30
2022-12-08T08:17:28.235Z,1.35
2022-12-08T08:19:54.861Z,1.32
2022-12-08T08:22:21.336Z,1.36
2022-12-08T08:24:47.886Z,1.35
2022-12-08T08:27:14.290Z,1.39
2022-12-08T08:29:40.687Z,1.36
2022-12-08T08:32:07.245Z,1.37
2022-12-08T08:34:33.753Z,1.40
2022-12-08T08:37:00.233Z,1.43
2022-12-08T08:39:27.049Z,1.47
2022-12-08T08:41:53.465Z,1.55
2022-12-08T08:44:19.831Z,1.50
2022-12-08T08:46:46.288Z,1.49
2022-12-08T08:49:13.067Z,1.46
2022-12-08T08:51:39.556Z,1.60
2022-12-08T08:54:06.030Z,1.64
2022-12-08T08:56:32.736Z,1.65
2022-12-08T08:58:59.198Z,1.72
2022-12-08T09:01:27.793Z,1.78
2022-12-08T09:03:55.353Z,1.91
2022-12-08T09:06:22.889Z,1.93
2022-12-08T09:08:49.910Z,2.00
2022-12-08T09:11:18.663Z,2.08
2022-12-08T09:13:48.307Z,2.10
2022-12-08T09:16:14.865Z,2.20
2022-12-08T09:18:41.448Z,2.23
2022-12-08T09:21:12.958Z,2.22
2022-12-08T09:23:39.758Z,2.25
2022-12-08T09:26:06.520Z,2.28
2022-12-08T09:28:33.388Z,2.23
2022-12-08T09:31:00.207Z,2.17
2022-12-08T09:33:29.068Z,2.18
2022-12-08T09:35:55.648Z,2.25
2022-12-08T09:38:22.056Z,2.24
2022-12-08T09:40:51.092Z,2.26
2022-12-08T09:43:36.162Z,2.39
2022-12-08T09:46:07.453Z,2.36
2022-12-08T09:48:47.928Z,2.35
2022-12-08T09:51:16.013Z,2.28
2022-12-08T09:53:48.320Z,2.36
2022-12-08T09:56:22.742Z,2.35
2022-12-08T09:59:02.806Z,2.30
2022-12-08T10:01:32.219Z,2.27
2022-12-08T10:03:59.498Z,2.30
2022-12-08T10:06:41.110Z,2.33
2022-12-08T10:09:25.789Z,2.37
2022-12-08T10:12:13.648Z,2.33
2022-12-08T10:14:47.094Z,2.27
2022-12-08T10:17:23.744Z,2.32
2022-12-08T10:19:57.769Z,2.34
2022-12-08T10:22:27.011Z,2.34
2022-12-08T10:25:10.917Z,2.35
2022-12-08T10:27:37.609Z,2.38
2022-12-08T10:30:13.167Z,2.41
2022-12-08T10:32:44.070Z,2.35
2022-12-08T10:35:16.246Z,2.36
2022-12-08T10:37:56.345Z,2.41
2022-12-08T10:40:22.783Z,2.34
2022-12-08T10:42:53.461Z,2.43
2022-12-08T10:45:28.059Z,2.50
2022-12-08T10:47:59.503Z,2.54
2022-12-08T10:50:35.968Z,2.66
2022-12-08T10:53:08.367Z,2.72
2022-12-08T10:55:47.456Z,2.76
2022-12-08T10:58:44.206Z,2.88
2022-12-08T11:01:36.342Z,2.95
2022-12-08T11:04:05.549Z,2.97
2022-12-08T11:06:35.650Z,2.96
2022-12-08T11:09:06.879Z,3.04
2022-12-08T11:11:50.714Z,3.11
2022-12-08T11:14:32.328Z,3.12
2022-12-08T11:17:27.340Z,3.15
2022-12-08T11:20:29.204Z,3.21
2022-12-08T11:22:56.303Z,3.18
2022-12-08T11:25:27.563Z,3.20
2022-12-08T11:27:58.034Z,3.22
2022-12-08T11:30:38.756Z,3.16
2022-12-08T11:33:23.663Z,3.07
2022-12-08T11:36:01.798Z,3.02
2022-12-08T11:38:29.883Z,2.95
2022-12-08T11:41:04.277Z,2.88
2022-12-08T11:43:33.748Z,2.95
2022-12-08T11:46:03.052Z,2.88
2022-12-08T11:48:40.987Z,2.86
2022-12-08T11:51:15.196Z,2.86
2022-12-08T11:53:54.196Z,2.82
2022-12-08T11:56:29.067Z,2.78
2022-12-08T11:59:10.441Z,2.83
2022-12-08T12:01:42.396Z,2.83
2022-12-08T12:04:31.544Z,2.94
2022-12-08T12:07:29.391Z,2.98
2022-12-08T12:10:23.810Z,3.01
2022-12-08T12:12:56.046Z,3.01
2022-12-08T12:15:47.809Z,3.02
2022-12-08T12:18:40.354Z,2.96
2022-12-08T12:21:19.849Z,3.01
2022-12-08T12:24:16.943Z,2.96
2022-12-08T12:27:00.171Z,2.98
2022-12-08T12:29:31.102Z,2.97
2022-12-08T12:32:08.794Z,2.97
2022-12-08T12:34:53.210Z,3.02
2022-12-08T12:37:35.054Z,2.99
2022-12-08T12:40:03.648Z,2.96
2022-12-08T12:42:41.146Z,3.00
2022-12-08T12:45:12.405Z,2.92
2022-12-08T12:47:56.308Z,2.88
2022-12-08T12:50:52.859Z,2.89
2022-12-08T12:53:19.235Z,2.89
2022-12-08T12:55:45.653Z,2.90
2022-12-08T12:58:30.340Z,2.91
2022-12-08T13:01:12.657Z,2.92
2022-12-08T13:03:45.792Z,2.90
2022-12-08T13:06:14.852Z,2.90
2022-12-08T13:08:50.972Z,2.89
2022-12-08T13:11:17.642Z,2.89
2022-12-08T13:14:04.598Z,2.92
2022-12-08T13:16:39.492Z,2.91
2022-12-08T13:19:15.876Z,2.95
2022-12-08T13:21:42.649Z,2.94
2022-12-08T13:24:12.931Z,2.98
2022-12-08T13:27:18.580Z,2.98
2022-12-08T13:30:05.331Z,2.96
2022-12-08T13:33:17.139Z,2.91
2022-12-08T13:35:50.397Z,2.95
2022-12-08T13:38:21.079Z,2.96
2022-12-08T13:40:48.193Z,2.96
2022-12-08T13:43:44.679Z,2.89
2022-12-08T13:58:01.978Z,2.87
2022-12-08T14:00:28.485Z,2.91
2022-12-08T14:03:00.574Z,2.90
2022-12-08T14:06:10.366Z,2.94
2022-12-08T14:08:59.915Z,2.96
2022-12-08T14:11:36.768Z,3.04
2022-12-08T14:14:14.437Z,3.03
2022-12-08T14:16:52.809Z,3.07
2022-12-08T14:19:23.030Z,3.07
2022-12-08T14:21:58.737Z,3.06
2022-12-08T14:24:30.257Z,3.05
2022-12-08T14:27:18.928Z,3.05
2022-12-08T14:29:47.506Z,3.02
2022-12-08T14:32:23.179Z,3.00
2022-12-08T14:35:01.781Z,2.95
2022-12-08T14:37:32.305Z,2.95
2022-12-08T14:40:04.466Z,2.93
2022-12-08T14:42:31.232Z,2.86
2022-12-08T14:45:20.630Z,2.84
2022-12-08T14:47:51.136Z,2.86
2022-12-08T14:50:38.221Z,2.85
2022-12-08T14:53:11.110Z,2.81
2022-12-08T14:55:38.016Z,2.86
2022-12-08T14:58:04.934Z,2.74
2022-12-08T15:00:31.603Z,2.74
2022-12-08T15:02:58.021Z,2.70
2022-12-08T15:05:30.615Z,2.67
2022-12-08T15:08:03.408Z,2.66
2022-12-08T15:10:33.211Z,2.61
2022-12-08T15:13:08.799Z,2.63
2022-12-08T15:15:56.097Z,2.58
2022-12-08T15:18:36.806Z,2.55
2022-12-08T15:21:12.815Z,2.54
2022-12-08T15:23:49.938Z,2.50
2022-12-08T15:26:22.120Z,2.50
2022-12-08T15:28:48.527Z,2.44
2022-12-08T15:31:15.950Z,2.46
2022-12-08T15:33:42.339Z,2.43
2022-12-08T15:36:09.645Z,2.44
2022-12-08T15:38:37.019Z,2.42
2022-12-08T15:41:04.390Z,2.38
2022-12-08T15:43:31.904Z,2.40
2022-12-08T15:46:00.050Z,2.36
2022-12-08T15:48:28.964Z,2.36
2022-12-08T15:50:56.433Z,2.39
2022-12-08T15:53:22.903Z,2.40
2022-12-08T15:56:18.843Z,2.41
2022-12-08T15:58:54.108Z,2.36
2022-12-08T16:01:21.126Z,2.39
2022-12-08T16:09:32.859Z,2.36
2022-12-08T16:12:18.116Z,2.38
2022-12-08T16:15:47.040Z,2.34
2022-12-08T16:17:31.785Z,2.33
2022-12-08T16:19:58.916Z,2.31
2022-12-08T16:25:18.643Z,2.30
2022-12-08T16:28:12.266Z,2.31
2022-12-08T16:30:33.226Z,2.29
2022-12-08T16:32:59.679Z,2.32
2022-12-08T16:35:28.586Z,2.27
2022-12-08T16:37:55.164Z,2.27
2022-12-08T16:40:22.006Z,2.28
2022-12-08T16:42:50.129Z,2.26
2022-12-08T16:45:28.099Z,2.26
2022-12-08T16:48:00.270Z,2.26
2022-12-08T16:50:31.887Z,2.28
2022-12-08T16:53:05.102Z,2.24
2022-12-08T16:55:32.616Z,2.21
2022-12-08T16:57:59.492Z,2.24
2022-12-08T17:00:27.897Z,2.25
2022-12-08T17:02:55.329Z,2.24
2022-12-08T17:05:24.030Z,2.22
2022-12-08T17:07:52.742Z,2.24
2022-12-08T17:10:22.940Z,2.21
2022-12-08T17:12:49.971Z,2.16
2022-12-08T17:15:21.809Z,2.18
2022-12-08T17:17:48.383Z,2.20
2022-12-08T17:20:20.811Z,2.22
2022-12-08T17:22:47.762Z,2.25
2022-12-08T17:25:14.521Z,2.20
2022-12-08T17:27:41.944Z,2.16
2022-12-08T17:30:11.644Z,2.17
2022-12-08T17:32:38.947Z,2.16
2022-12-08T17:35:06.310Z,2.10
2022-12-08T17:37:33.478Z,2.15
2022-12-08T17:39:59.906Z,2.15
2022-12-08T17:42:27.240Z,2.13
2022-12-08T17:44:54.351Z,2.13
2022-12-08T17:47:20.843Z,2.12
2022-12-08T17:49:48.779Z,2.12
2022-12-08T17:52:15.215Z,2.08
2022-12-08T17:54:41.642Z,2.08
2022-12-08T17:57:08.153Z,2.12
2022-12-08T17:59:34.583Z,2.08
2022-12-08T18:02:01.316Z,2.09
2022-12-08T18:04:28.647Z,2.03
2022-12-08T18:06:55.336Z,2.09
2022-12-08T18:09:21.886Z,2.01
2022-12-08T18:11:48.545Z,1.98
2022-12-08T18:14:16.116Z,1.96
2022-12-08T18:16:45.229Z,1.93
2022-12-08T18:19:13.023Z,1.93
2022-12-08T18:21:40.207Z,1.91
2022-12-08T18:24:08.103Z,1.88
2022-12-08T18:26:35.111Z,1.86
2022-12-08T18:29:01.802Z,1.84
2022-12-08T18:31:28.319Z,1.75
2022-12-08T18:33:54.857Z,1.73
2022-12-08T18:36:24.633Z,1.70
2022-12-08T18:38:52.323Z,1.69
2022-12-08T18:41:24.434Z,1.73
2022-12-08T18:43:51.073Z,1.72
2022-12-08T18:46:17.598Z,1.72
2022-12-08T18:48:47.121Z,1.65
2022-12-08T18:51:19.677Z,1.66
2022-12-08T18:53:46.832Z,1.68
2022-12-08T18:56:30.697Z,1.68
2022-12-08T18:59:03.335Z,1.63
2022-12-08T19:01:34.764Z,1.60
2022-12-08T19:06:50.389Z,1.58
2022-12-08T19:09:16.887Z,1.54
2022-12-08T19:11:43.999Z,1.50
2022-12-08T19:14:11.201Z,1.47
2022-12-08T19:16:37.801Z,1.46
2022-12-08T19:19:04.893Z,1.46
2022-12-08T19:21:31.836Z,1.46
2022-12-08T19:23:58.593Z,1.45
2022-12-08T19:26:27.092Z,1.44
2022-12-08T19:28:54.051Z,1.46
2022-12-08T19:31:20.472Z,1.45
2022-12-08T19:33:46.887Z,1.42
2022-12-08T19:36:17.899Z,1.45
2022-12-08T19:39:02.760Z,1.41
2022-12-08T19:41:48.008Z,1.42
2022-12-08T19:44:53.187Z,1.43
2022-12-08T19:47:24.599Z,1.44
2022-12-08T19:49:51.901Z,1.46
2022-12-08T19:52:18.802Z,1.48
2022-12-08T19:54:45.378Z,1.45
2022-12-08T19:57:11.953Z,1.42
2022-12-08T19:59:39.519Z,1.41
2022-12-08T20:02:06.442Z,1.39
2022-12-08T20:04:33.204Z,1.39
2022-12-08T20:06:59.677Z,1.37
2022-12-08T20:09:26.142Z,1.35
2022-12-08T20:11:54.749Z,1.34
2022-12-08T20:14:22.524Z,1.28
2022-12-08T20:16:49.771Z,1.26
2022-12-08T20:19:16.292Z,1.25
2022-12-08T20:21:42.722Z,1.24
2022-12-08T20:24:09.208Z,1.20
2022-12-08T20:26:35.721Z,1.18
2022-12-08T20:29:02.177Z,1.15
2022-12-08T20:31:30.867Z,1.09
2022-12-08T20:33:57.496Z,1.08
2022-12-08T20:36:24.282Z,1.07
2022-12-08T20:38:52.797Z,1.01
2022-12-08T20:41:21.050Z,0.99
2022-12-08T20:43:47.981Z,0.94
2022-12-08T20:46:16.462Z,0.93
2022-12-08T20:48:43.584Z,0.97
2022-12-08T20:51:17.112Z,0.92
2022-12-08T20:53:43.738Z,0.90
2022-12-08T20:56:14.904Z,0.96
2022-12-08T20:58:42.104Z,0.94
2022-12-08T21:01:12.962Z,0.92
2022-12-08T21:03:40.040Z,0.83
2022-12-08T21:06:07.477Z,0.83
2022-12-08T21:08:35.003Z,0.86
2022-12-08T21:11:02.017Z,0.85
2022-12-08T21:13:28.498Z,0.89
2022-12-08T21:15:55.366Z,0.86
2022-12-08T21:18:22.470Z,0.90
2022-12-08T21:20:49.653Z,0.90
2022-12-08T21:23:16.528Z,0.93
2022-12-08T21:25:45.183Z,0.93
2022-12-08T21:28:12.693Z,0.95
2022-12-08T21:30:40.194Z,0.89
2022-12-08T21:33:06.897Z,0.86
2022-12-08T21:35:33.782Z,0.83
2022-12-08T21:38:00.332Z,0.78
2022-12-08T21:40:27.082Z,0.79
2022-12-08T21:42:53.763Z,0.78
2022-12-08T21:45:21.598Z,0.78
2022-12-08T21:47:49.308Z,0.73
2022-12-08T21:50:16.487Z,0.76
2022-12-08T21:52:45.697Z,0.76
2022-12-08T21:55:13.462Z,0.76
2022-12-08T21:57:40.650Z,0.67
2022-12-08T22:00:08.534Z,0.64
2022-12-08T22:02:35.229Z,0.71
2022-12-08T22:05:02.139Z,0.69
2022-12-08T22:07:28.662Z,0.65
2022-12-08T22:09:55.195Z,0.65
2022-12-08T22:12:21.703Z,0.61
2022-12-08T22:14:50.636Z,0.55
2022-12-08T22:17:17.317Z,0.52
2022-12-08T22:19:43.999Z,0.46
2022-12-08T22:22:10.608Z,0.45
2022-12-08T22:24:37.142Z,0.40
2022-12-08T22:27:04.344Z,0.35
2022-12-08T22:29:30.886Z,0.32
2022-12-08T22:31:57.614Z,0.25
2022-12-08T22:34:24.195Z,0.23
2022-12-08T22:36:50.857Z,0.20
2022-12-08T22:39:17.439Z,0.13
2022-12-08T22:41:44.134Z,0.08
2022-12-08T22:44:12.293Z,0.08
2022-12-08T22:46:38.914Z,0.01
2022-12-08T22:49:05.838Z,-0.05
2022-12-08T22:51:35.215Z,-0.13
2022-12-08T22:54:01.780Z,-0.12
2022-12-08T22:56:28.193Z,-0.19
2022-12-08T22:58:54.754Z,-0.20
2022-12-08T23:01:24.198Z,-0.15
2022-12-08T23:03:51.165Z,-0.22
2022-12-08T23:06:17.999Z,-0.31
2022-12-08T23:08:45.424Z,-0.36
2022-12-08T23:11:12.523Z,-0.41
2022-12-08T23:13:39.847Z,-0.49
2022-12-08T23:16:10.588Z,-0.56
2022-12-08T23:18:40.285Z,-0.62
2022-12-08T23:21:09.563Z,-0.62
2022-12-08T23:23:36.585Z,-0.68
2022-12-08T23:26:03.443Z,-0.71
2022-12-08T23:28:29.833Z,-0.77
2022-12-08T23:30:56.357Z,-0.81
2022-12-08T23:33:22.955Z,-0.84
2022-12-08T23:35:57.594Z,-0.84
2022-12-08T23:38:25.302Z,-0.78
2022-12-08T23:40:53.250Z,-0.75
2022-12-08T23:43:20.090Z,-0.77
2022-12-08T23:45:48.357Z,-0.76
2022-12-08T23:48:15.034Z,-0.79
2022-12-08T23:50:41.664Z,-0.82
2022-12-08T23:53:08.089Z,-0.78
2022-12-08T23:55:34.808Z,-0.80
2022-12-08T23:58:01.473Z,-0.78
